sensor_id;sensor_type;location;lat;lon;timestamp;temperature;humidity
12720;DHT22;6424;48.520;11.228;2023-03-01T00:02:28;0.30;99.90
12720;DHT22;6424;48.520;11.228;2023-03-01T00:05:09;0.30;99.90
12720;DHT22;6424;48.520;11.228;2023-03-01T00:07:53;0.40;99.90
12720;DHT22;6424;48.520;11.228;2023-03-01T00:10:34;0.40;99.90
12720;DHT22;6424;48.520;11.228;2023-03-01T00:13:14;0.40;99.90
12720;DHT22;6424;48.520;11.228;2023-03-01T00:15:55;0.40;99.90
12720;DHT22;6424;48.520;11.228;2023-03-01T00:18:36;0.40;99.90
12720;DHT22;6424;48.520;11.228;2023-03-01T00:21:17;0.30;99.90
12720;DHT22;6424;48.520;11.228;2023-03-01T00:23:45;0.20;99.90
12720;DHT22;6424;48.520;11.228;2023-03-01T00:26:26;0.20;99.90
12720;DHT22;6424;48.520;11.228;2023-03-01T00:29:07;0.20;99.90
12720;DHT22;6424;48.520;11.228;2023-03-01T00:31:48;0.20;99.90
12720;DHT22;6424;48.520;11.228;2023-03-01T00:34:13;0.20;99.90
12720;DHT22;6424;48.520;11.228;2023-03-01T00:36:54;0.20;99.90
12720;DHT22;6424;48.520;11.228;2023-03-01T00:39:35;0.20;99.90
12720;DHT22;6424;48.520;11.228;2023-03-01T00:42:16;0.20;99.90
12720;DHT22;6424;48.520;11.228;2023-03-01T00:44:57;0.20;99.90
12720;DHT22;6424;48.520;11.228;2023-03-01T00:47:23;0.20;99.90
12720;DHT22;6424;48.520;11.228;2023-03-01T00:50:03;0.20;99.90
12720;DHT22;6424;48.520;11.228;2023-03-01T00:52:44;0.20;99.90
12720;DHT22;6424;48.520;11.228;2023-03-01T00:55:26;0.20;99.90
12720;DHT22;6424;48.520;11.228;2023-03-01T00:58:06;0.10;99.90
12720;DHT22;6424;48.520;11.228;2023-03-01T01:00:47;0.10;99.90
12720;DHT22;6424;48.520;11.228;2023-03-01T01:03:28;0.10;99.90
12720;DHT22;6424;48.520;11.228;2023-03-01T01:06:17;0.10;99.90
12720;DHT22;6424;48.520;11.228;2023-03-01T01:08:59;0.10;99.90
12720;DHT22;6424;48.520;11.228;2023-03-01T01:11:39;0.00;99.90
12720;DHT22;6424;48.520;11.228;2023-03-01T01:14:20;0.10;99.90
12720;DHT22;6424;48.520;11.228;2023-03-01T01:17:01;0.00;99.90
12720;DHT22;6424;48.520;11.228;2023-03-01T01:19:42;0.00;99.90
12720;DHT22;6424;48.520;11.228;2023-03-01T01:22:23;0.00;99.90
12720;DHT22;6424;48.520;11.228;2023-03-01T01:25:04;0.00;99.90
12720;DHT22;6424;48.520;11.228;2023-03-01T01:27:45;-0.10;99.90
12720;DHT22;6424;48.520;11.228;2023-03-01T01:30:25;-0.10;99.90
12720;DHT22;6424;48.520;11.228;2023-03-01T01:33:06;-0.10;99.90
12720;DHT22;6424;48.520;11.228;2023-03-01T01:35:47;0.00;99.90
12720;DHT22;6424;48.520;11.228;2023-03-01T01:38:28;0.00;99.90
12720;DHT22;6424;48.520;11.228;2023-03-01T01:41:10;0.00;99.90
12720;DHT22;6424;48.520;11.228;2023-03-01T01:44:22;-0.10;99.90
12720;DHT22;6424;48.520;11.228;2023-03-01T01:49:56;-0.10;99.90
12720;DHT22;6424;48.520;11.228;2023-03-01T01:52:37;-0.10;99.90
12720;DHT22;6424;48.520;11.228;2023-03-01T01:55:24;-0.10;99.90
12720;DHT22;6424;48.520;11.228;2023-03-01T01:58:09;-0.10;99.90
12720;DHT22;6424;48.520;11.228;2023-03-01T02:00:51;-0.10;99.90
12720;DHT22;6424;48.520;11.228;2023-03-01T02:03:33;-0.20;99.90
12720;DHT22;6424;48.520;11.228;2023-03-01T02:09:06;-0.20;99.90
12720;DHT22;6424;48.520;11.228;2023-03-01T02:11:48;-0.20;99.90
12720;DHT22;6424;48.520;11.228;2023-03-01T02:14:31;-0.20;99.90
12720;DHT22;6424;48.520;11.228;2023-03-01T02:17:13;-0.20;99.90
12720;DHT22;6424;48.520;11.228;2023-03-01T02:22:47;-0.20;99.90
12720;DHT22;6424;48.520;11.228;2023-03-01T02:30:57;-0.20;99.90
12720;DHT22;6424;48.520;11.228;2023-03-01T02:33:57;-0.20;99.90
12720;DHT22;6424;48.520;11.228;2023-03-01T02:36:49;-0.20;99.90
12720;DHT22;6424;48.520;11.228;2023-03-01T02:39:39;-0.20;99.90
12720;DHT22;6424;48.520;11.228;2023-03-01T02:42:26;-0.30;99.90
12720;DHT22;6424;48.520;11.228;2023-03-01T02:45:07;-0.20;99.90
12720;DHT22;6424;48.520;11.228;2023-03-01T02:47:48;-0.20;99.90
12720;DHT22;6424;48.520;11.228;2023-03-01T02:53:27;-0.20;99.90
12720;DHT22;6424;48.520;11.228;2023-03-01T02:56:10;-0.20;99.90
12720;DHT22;6424;48.520;11.228;2023-03-01T02:58:53;-0.30;99.90
12720;DHT22;6424;48.520;11.228;2023-03-01T03:01:20;-0.30;99.90
12720;DHT22;6424;48.520;11.228;2023-03-01T03:03:46;-0.30;99.90
12720;DHT22;6424;48.520;11.228;2023-03-01T03:06:27;-0.30;99.90
12720;DHT22;6424;48.520;11.228;2023-03-01T03:09:08;-0.40;99.90
12720;DHT22;6424;48.520;11.228;2023-03-01T03:11:48;-0.40;99.90
12720;DHT22;6424;48.520;11.228;2023-03-01T03:14:29;-0.40;99.90
12720;DHT22;6424;48.520;11.228;2023-03-01T03:16:55;-0.50;99.90
12720;DHT22;6424;48.520;11.228;2023-03-01T03:19:36;-0.50;99.90
12720;DHT22;6424;48.520;11.228;2023-03-01T03:22:02;-0.60;99.90
12720;DHT22;6424;48.520;11.228;2023-03-01T03:24:42;-0.60;99.90
12720;DHT22;6424;48.520;11.228;2023-03-01T03:27:08;-0.60;99.90
12720;DHT22;6424;48.520;11.228;2023-03-01T03:29:49;-0.70;99.90
12720;DHT22;6424;48.520;11.228;2023-03-01T03:32:30;-0.70;99.90
12720;DHT22;6424;48.520;11.228;2023-03-01T03:35:11;-0.80;99.90
12720;DHT22;6424;48.520;11.228;2023-03-01T03:37:52;-0.80;99.90
12720;DHT22;6424;48.520;11.228;2023-03-01T03:40:59;-0.90;99.90
12720;DHT22;6424;48.520;11.228;2023-03-01T03:43:29;-1.00;99.90
12720;DHT22;6424;48.520;11.228;2023-03-01T03:46:11;-1.00;99.90
12720;DHT22;6424;48.520;11.228;2023-03-01T03:48:52;-1.10;99.90
12720;DHT22;6424;48.520;11.228;2023-03-01T03:51:33;-1.00;99.90
12720;DHT22;6424;48.520;11.228;2023-03-01T03:54:13;-1.10;99.90
12720;DHT22;6424;48.520;11.228;2023-03-01T03:56:54;-1.10;99.90
12720;DHT22;6424;48.520;11.228;2023-03-01T03:59:35;-1.10;99.90
12720;DHT22;6424;48.520;11.228;2023-03-01T04:02:16;-1.20;99.90
12720;DHT22;6424;48.520;11.228;2023-03-01T04:05:02;-1.30;99.90
12720;DHT22;6424;48.520;11.228;2023-03-01T04:07:28;-1.30;99.90
12720;DHT22;6424;48.520;11.228;2023-03-01T04:10:12;-1.30;99.90
12720;DHT22;6424;48.520;11.228;2023-03-01T04:12:53;-1.30;99.90
12720;DHT22;6424;48.520;11.228;2023-03-01T04:15:37;-1.30;99.90
12720;DHT22;6424;48.520;11.228;2023-03-01T04:18:19;-1.30;99.90
12720;DHT22;6424;48.520;11.228;2023-03-01T04:21:00;-1.30;99.90
12720;DHT22;6424;48.520;11.228;2023-03-01T04:23:25;-1.40;99.90
12720;DHT22;6424;48.520;11.228;2023-03-01T04:26:06;-1.50;99.90
12720;DHT22;6424;48.520;11.228;2023-03-01T04:28:47;-1.50;99.90
12720;DHT22;6424;48.520;11.228;2023-03-01T04:31:29;-1.50;99.90
12720;DHT22;6424;48.520;11.228;2023-03-01T04:34:10;-1.60;99.90
12720;DHT22;6424;48.520;11.228;2023-03-01T04:36:51;-1.70;99.90
12720;DHT22;6424;48.520;11.228;2023-03-01T04:39:32;-1.60;99.90
12720;DHT22;6424;48.520;11.228;2023-03-01T04:42:14;-1.70;99.90
12720;DHT22;6424;48.520;11.228;2023-03-01T04:44:55;-1.70;99.90
12720;DHT22;6424;48.520;11.228;2023-03-01T04:47:35;-1.80;99.90
12720;DHT22;6424;48.520;11.228;2023-03-01T04:50:19;-1.80;99.90
12720;DHT22;6424;48.520;11.228;2023-03-01T04:53:04;-1.90;99.90
12720;DHT22;6424;48.520;11.228;2023-03-01T04:55:44;-1.90;99.90
12720;DHT22;6424;48.520;11.228;2023-03-01T04:58:27;-1.90;99.90
12720;DHT22;6424;48.520;11.228;2023-03-01T05:01:10;-1.90;99.90
12720;DHT22;6424;48.520;11.228;2023-03-01T05:03:55;-2.00;99.90
12720;DHT22;6424;48.520;11.228;2023-03-01T05:06:36;-2.00;99.90
12720;DHT22;6424;48.520;11.228;2023-03-01T05:09:17;-2.00;99.90
12720;DHT22;6424;48.520;11.228;2023-03-01T05:11:57;-2.00;99.90
12720;DHT22;6424;48.520;11.228;2023-03-01T05:14:39;-2.00;99.90
12720;DHT22;6424;48.520;11.228;2023-03-01T05:17:19;-2.00;99.90
12720;DHT22;6424;48.520;11.228;2023-03-01T05:20:00;-2.10;99.90
12720;DHT22;6424;48.520;11.228;2023-03-01T05:22:41;-2.20;99.90
12720;DHT22;6424;48.520;11.228;2023-03-01T05:25:07;-2.20;99.90
12720;DHT22;6424;48.520;11.228;2023-03-01T05:27:48;-2.20;99.90
12720;DHT22;6424;48.520;11.228;2023-03-01T05:30:14;-2.30;99.90
12720;DHT22;6424;48.520;11.228;2023-03-01T05:32:55;-2.30;99.90
12720;DHT22;6424;48.520;11.228;2023-03-01T05:35:36;-2.30;99.90
12720;DHT22;6424;48.520;11.228;2023-03-01T05:38:17;-2.20;99.90
12720;DHT22;6424;48.520;11.228;2023-03-01T05:40:58;-2.30;99.90
12720;DHT22;6424;48.520;11.228;2023-03-01T05:43:39;-2.30;99.90
12720;DHT22;6424;48.520;11.228;2023-03-01T05:46:22;-2.30;99.90
12720;DHT22;6424;48.520;11.228;2023-03-01T05:49:04;-2.30;99.90
12720;DHT22;6424;48.520;11.228;2023-03-01T05:51:51;-2.40;99.90
12720;DHT22;6424;48.520;11.228;2023-03-01T05:54:32;-2.40;99.90
12720;DHT22;6424;48.520;11.228;2023-03-01T05:57:13;-2.40;99.90
12720;DHT22;6424;48.520;11.228;2023-03-01T05:59:55;-2.40;99.90
12720;DHT22;6424;48.520;11.228;2023-03-01T06:02:36;-2.40;99.90
12720;DHT22;6424;48.520;11.228;2023-03-01T06:05:17;-2.30;99.90
12720;DHT22;6424;48.520;11.228;2023-03-01T06:08:02;-2.30;99.90
12720;DHT22;6424;48.520;11.228;2023-03-01T06:10:43;-2.40;99.90
12720;DHT22;6424;48.520;11.228;2023-03-01T06:13:24;-2.30;99.90
12720;DHT22;6424;48.520;11.228;2023-03-01T06:16:06;-2.30;99.90
12720;DHT22;6424;48.520;11.228;2023-03-01T06:18:31;-2.30;99.90
12720;DHT22;6424;48.520;11.228;2023-03-01T06:20:57;-2.30;99.90
12720;DHT22;6424;48.520;11.228;2023-03-01T06:23:38;-2.30;99.90
12720;DHT22;6424;48.520;11.228;2023-03-01T06:26:19;-2.30;99.90
12720;DHT22;6424;48.520;11.228;2023-03-01T06:29:00;-2.30;99.90
12720;DHT22;6424;48.520;11.228;2023-03-01T06:31:40;-2.30;99.90
12720;DHT22;6424;48.520;11.228;2023-03-01T06:34:21;-2.30;99.90
12720;DHT22;6424;48.520;11.228;2023-03-01T06:37:02;-2.30;99.90
12720;DHT22;6424;48.520;11.228;2023-03-01T06:39:45;-2.20;99.90
12720;DHT22;6424;48.520;11.228;2023-03-01T06:42:26;-2.20;99.90
12720;DHT22;6424;48.520;11.228;2023-03-01T06:45:07;-2.20;99.90
12720;DHT22;6424;48.520;11.228;2023-03-01T06:47:34;-2.20;99.90
12720;DHT22;6424;48.520;11.228;2023-03-01T06:50:15;-2.20;99.90
12720;DHT22;6424;48.520;11.228;2023-03-01T06:52:42;-2.10;99.90
12720;DHT22;6424;48.520;11.228;2023-03-01T06:55:25;-2.10;99.90
12720;DHT22;6424;48.520;11.228;2023-03-01T06:58:05;-2.10;99.90
12720;DHT22;6424;48.520;11.228;2023-03-01T07:00:46;-2.00;99.90
12720;DHT22;6424;48.520;11.228;2023-03-01T07:03:27;-2.00;99.90
12720;DHT22;6424;48.520;11.228;2023-03-01T07:06:08;-1.90;99.90
12720;DHT22;6424;48.520;11.228;2023-03-01T07:08:49;-1.80;99.90
12720;DHT22;6424;48.520;11.228;2023-03-01T07:11:30;-1.70;99.90
12720;DHT22;6424;48.520;11.228;2023-03-01T07:13:55;-1.30;99.90
12720;DHT22;6424;48.520;11.228;2023-03-01T07:16:36;-1.00;99.90
12720;DHT22;6424;48.520;11.228;2023-03-01T07:19:17;-0.70;99.90
12720;DHT22;6424;48.520;11.228;2023-03-01T07:21:58;-0.50;99.90
12720;DHT22;6424;48.520;11.228;2023-03-01T07:24:24;-0.50;99.90
12720;DHT22;6424;48.520;11.228;2023-03-01T07:27:04;-0.40;99.90
12720;DHT22;6424;48.520;11.228;2023-03-01T07:29:45;-0.40;99.90
12720;DHT22;6424;48.520;11.228;2023-03-01T07:32:26;-0.30;99.90
12720;DHT22;6424;48.520;11.228;2023-03-01T07:35:07;-0.30;99.90
12720;DHT22;6424;48.520;11.228;2023-03-01T07:37:48;-0.20;99.90
12720;DHT22;6424;48.520;11.228;2023-03-01T07:40:29;-0.10;99.90
12720;DHT22;6424;48.520;11.228;2023-03-01T07:43:09;0.00;99.90
12720;DHT22;6424;48.520;11.228;2023-03-01T07:45:50;0.10;99.90
12720;DHT22;6424;48.520;11.228;2023-03-01T07:48:33;0.10;99.90
12720;DHT22;6424;48.520;11.228;2023-03-01T07:51:14;0.10;99.90
12720;DHT22;6424;48.520;11.228;2023-03-01T07:53:54;0.20;99.90
12720;DHT22;6424;48.520;11.228;2023-03-01T07:56:35;0.20;99.90
12720;DHT22;6424;48.520;11.228;2023-03-01T07:59:01;0.20;99.90
12720;DHT22;6424;48.520;11.228;2023-03-01T08:01:27;0.30;99.90
12720;DHT22;6424;48.520;11.228;2023-03-01T08:04:08;0.30;99.90
12720;DHT22;6424;48.520;11.228;2023-03-01T08:06:35;0.30;99.90
12720;DHT22;6424;48.520;11.228;2023-03-01T08:09:01;0.40;99.90
12720;DHT22;6424;48.520;11.228;2023-03-01T08:11:41;0.60;99.90
12720;DHT22;6424;48.520;11.228;2023-03-01T08:14:22;0.70;99.90
12720;DHT22;6424;48.520;11.228;2023-03-01T08:17:03;0.80;99.90
12720;DHT22;6424;48.520;11.228;2023-03-01T08:19:44;0.80;99.90
12720;DHT22;6424;48.520;11.228;2023-03-01T08:22:25;0.80;99.90
12720;DHT22;6424;48.520;11.228;2023-03-01T08:25:06;0.90;99.90
12720;DHT22;6424;48.520;11.228;2023-03-01T08:27:47;1.00;99.90
12720;DHT22;6424;48.520;11.228;2023-03-01T08:30:27;1.00;99.90
12720;DHT22;6424;48.520;11.228;2023-03-01T08:33:08;1.00;99.90
12720;DHT22;6424;48.520;11.228;2023-03-01T08:35:49;1.00;99.90
12720;DHT22;6424;48.520;11.228;2023-03-01T08:38:30;1.00;99.90
12720;DHT22;6424;48.520;11.228;2023-03-01T08:41:11;1.20;99.90
12720;DHT22;6424;48.520;11.228;2023-03-01T08:43:52;1.30;99.90
12720;DHT22;6424;48.520;11.228;2023-03-01T08:46:41;1.30;99.90
12720;DHT22;6424;48.520;11.228;2023-03-01T08:49:08;1.40;99.90
12720;DHT22;6424;48.520;11.228;2023-03-01T08:51:49;1.50;99.90
12720;DHT22;6424;48.520;11.228;2023-03-01T08:54:30;1.50;99.90
12720;DHT22;6424;48.520;11.228;2023-03-01T08:57:11;1.50;99.90
12720;DHT22;6424;48.520;11.228;2023-03-01T08:59:53;1.60;99.90
12720;DHT22;6424;48.520;11.228;2023-03-01T09:02:36;1.60;99.90
12720;DHT22;6424;48.520;11.228;2023-03-01T09:05:02;1.70;99.90
12720;DHT22;6424;48.520;11.228;2023-03-01T09:07:43;1.80;99.90
12720;DHT22;6424;48.520;11.228;2023-03-01T09:10:23;1.90;99.90
12720;DHT22;6424;48.520;11.228;2023-03-01T09:13:04;2.00;99.90
12720;DHT22;6424;48.520;11.228;2023-03-01T09:15:45;2.20;99.90
12720;DHT22;6424;48.520;11.228;2023-03-01T09:18:11;2.30;99.90
12720;DHT22;6424;48.520;11.228;2023-03-01T09:20:52;2.30;99.90
12720;DHT22;6424;48.520;11.228;2023-03-01T09:23:36;2.50;99.90
12720;DHT22;6424;48.520;11.228;2023-03-01T09:26:20;2.60;99.90
12720;DHT22;6424;48.520;11.228;2023-03-01T09:29:02;2.70;99.90
12720;DHT22;6424;48.520;11.228;2023-03-01T09:31:43;2.80;99.90
12720;DHT22;6424;48.520;11.228;2023-03-01T09:34:24;2.80;99.90
12720;DHT22;6424;48.520;11.228;2023-03-01T09:37:05;2.90;99.90
12720;DHT22;6424;48.520;11.228;2023-03-01T09:39:45;3.00;99.90
12720;DHT22;6424;48.520;11.228;2023-03-01T09:42:28;3.00;99.90
12720;DHT22;6424;48.520;11.228;2023-03-01T09:45:11;3.10;99.90
12720;DHT22;6424;48.520;11.228;2023-03-01T09:47:55;3.10;99.90
12720;DHT22;6424;48.520;11.228;2023-03-01T09:50:39;3.20;99.90
12720;DHT22;6424;48.520;11.228;2023-03-01T09:53:32;3.10;99.90
12720;DHT22;6424;48.520;11.228;2023-03-01T09:56:27;3.10;99.90
12720;DHT22;6424;48.520;11.228;2023-03-01T10:02:21;3.10;99.90
12720;DHT22;6424;48.520;11.228;2023-03-01T10:10:52;3.40;99.90
12720;DHT22;6424;48.520;11.228;2023-03-01T10:13:58;3.50;99.90
12720;DHT22;6424;48.520;11.228;2023-03-01T10:16:50;3.50;99.90
12720;DHT22;6424;48.520;11.228;2023-03-01T10:19:43;3.50;99.90
12720;DHT22;6424;48.520;11.228;2023-03-01T10:22:27;3.40;99.90
12720;DHT22;6424;48.520;11.228;2023-03-01T10:25:13;3.50;99.90
12720;DHT22;6424;48.520;11.228;2023-03-01T10:28:06;3.40;99.90
12720;DHT22;6424;48.520;11.228;2023-03-01T10:30:51;3.40;99.90
12720;DHT22;6424;48.520;11.228;2023-03-01T10:33:36;3.60;99.90
12720;DHT22;6424;48.520;11.228;2023-03-01T10:36:17;3.70;99.90
12720;DHT22;6424;48.520;11.228;2023-03-01T10:38:58;3.80;99.90
12720;DHT22;6424;48.520;11.228;2023-03-01T10:41:54;4.00;99.90
12720;DHT22;6424;48.520;11.228;2023-03-01T10:47:20;4.00;99.90
12720;DHT22;6424;48.520;11.228;2023-03-01T10:50:09;3.90;99.90
12720;DHT22;6424;48.520;11.228;2023-03-01T10:53:03;3.90;99.90
12720;DHT22;6424;48.520;11.228;2023-03-01T10:55:44;3.90;99.90
12720;DHT22;6424;48.520;11.228;2023-03-01T10:58:25;4.00;99.90
12720;DHT22;6424;48.520;11.228;2023-03-01T11:06:58;4.20;99.90
12720;DHT22;6424;48.520;11.228;2023-03-01T11:09:39;4.30;99.90
12720;DHT22;6424;48.520;11.228;2023-03-01T11:12:21;4.30;99.90
12720;DHT22;6424;48.520;11.228;2023-03-01T11:15:02;4.30;99.90
12720;DHT22;6424;48.520;11.228;2023-03-01T11:17:30;4.30;99.90
12720;DHT22;6424;48.520;11.228;2023-03-01T11:22:55;4.40;99.90
12720;DHT22;6424;48.520;11.228;2023-03-01T11:25:39;4.50;99.90
12720;DHT22;6424;48.520;11.228;2023-03-01T11:28:21;4.50;99.90
12720;DHT22;6424;48.520;11.228;2023-03-01T11:31:06;4.50;99.90
12720;DHT22;6424;48.520;11.228;2023-03-01T11:33:56;4.60;99.90
12720;DHT22;6424;48.520;11.228;2023-03-01T11:36:46;4.70;99.90
12720;DHT22;6424;48.520;11.228;2023-03-01T11:39:39;4.80;99.90
12720;DHT22;6424;48.520;11.228;2023-03-01T11:42:46;4.90;99.90
12720;DHT22;6424;48.520;11.228;2023-03-01T11:45:43;5.00;99.90
12720;DHT22;6424;48.520;11.228;2023-03-01T12:24:01;5.50;99.90
12720;DHT22;6424;48.520;11.228;2023-03-01T12:29:45;5.60;99.90
12720;DHT22;6424;48.520;11.228;2023-03-01T12:41:51;5.70;99.90
12720;DHT22;6424;48.520;11.228;2023-03-01T12:44:47;5.70;99.90
12720;DHT22;6424;48.520;11.228;2023-03-01T12:50:47;5.90;99.90
12720;DHT22;6424;48.520;11.228;2023-03-01T12:53:36;5.80;99.90
12720;DHT22;6424;48.520;11.228;2023-03-01T12:56:25;5.80;99.90
12720;DHT22;6424;48.520;11.228;2023-03-01T13:02:45;5.80;99.90
12720;DHT22;6424;48.520;11.228;2023-03-01T13:08:27;6.00;99.90
12720;DHT22;6424;48.520;11.228;2023-03-01T13:11:21;6.10;99.90
12720;DHT22;6424;48.520;11.228;2023-03-01T13:17:01;6.10;99.90
12720;DHT22;6424;48.520;11.228;2023-03-01T13:19:56;6.10;99.90
12720;DHT22;6424;48.520;11.228;2023-03-01T13:22:38;6.10;99.90
12720;DHT22;6424;48.520;11.228;2023-03-01T13:25:19;6.20;99.90
12720;DHT22;6424;48.520;11.228;2023-03-01T13:34:01;6.10;99.90
12720;DHT22;6424;48.520;11.228;2023-03-01T13:39:32;6.20;99.90
12720;DHT22;6424;48.520;11.228;2023-03-01T13:45:35;6.30;99.90
12720;DHT22;6424;48.520;11.228;2023-03-01T13:48:08;6.30;99.90
12720;DHT22;6424;48.520;11.228;2023-03-01T13:50:58;6.30;99.90
12720;DHT22;6424;48.520;11.228;2023-03-01T13:53:44;6.40;99.90
12720;DHT22;6424;48.520;11.228;2023-03-01T13:56:28;6.40;99.90
12720;DHT22;6424;48.520;11.228;2023-03-01T13:59:17;6.40;99.90
12720;DHT22;6424;48.520;11.228;2023-03-01T14:01:43;6.40;99.90
12720;DHT22;6424;48.520;11.228;2023-03-01T14:04:42;6.50;99.90
12720;DHT22;6424;48.520;11.228;2023-03-01T14:07:25;6.50;99.90
12720;DHT22;6424;48.520;11.228;2023-03-01T14:10:06;6.60;99.90
12720;DHT22;6424;48.520;11.228;2023-03-01T14:12:54;6.60;99.90
12720;DHT22;6424;48.520;11.228;2023-03-01T14:16:04;6.70;99.90
12720;DHT22;6424;48.520;11.228;2023-03-01T14:21:45;6.70;99.90
12720;DHT22;6424;48.520;11.228;2023-03-01T14:24:26;6.70;99.90
12720;DHT22;6424;48.520;11.228;2023-03-01T14:27:11;6.80;99.90
12720;DHT22;6424;48.520;11.228;2023-03-01T14:30:02;6.80;99.90
12720;DHT22;6424;48.520;11.228;2023-03-01T14:32:57;6.80;99.90
12720;DHT22;6424;48.520;11.228;2023-03-01T14:35:38;6.70;99.90
12720;DHT22;6424;48.520;11.228;2023-03-01T14:38:28;6.80;99.90
12720;DHT22;6424;48.520;11.228;2023-03-01T14:40:59;6.80;99.90
12720;DHT22;6424;48.520;11.228;2023-03-01T14:43:47;6.90;99.90
12720;DHT22;6424;48.520;11.228;2023-03-01T14:46:38;6.90;99.90
12720;DHT22;6424;48.520;11.228;2023-03-01T14:49:26;6.90;99.90
12720;DHT22;6424;48.520;11.228;2023-03-01T14:52:21;6.90;99.90
12720;DHT22;6424;48.520;11.228;2023-03-01T14:55:09;6.90;99.90
12720;DHT22;6424;48.520;11.228;2023-03-01T14:57:43;6.90;99.90
12720;DHT22;6424;48.520;11.228;2023-03-01T15:00:30;6.90;99.90
12720;DHT22;6424;48.520;11.228;2023-03-01T15:03:14;6.90;99.90
12720;DHT22;6424;48.520;11.228;2023-03-01T15:05:59;6.90;99.90
12720;DHT22;6424;48.520;11.228;2023-03-01T15:08:49;6.90;99.90
12720;DHT22;6424;48.520;11.228;2023-03-01T15:11:32;6.90;99.90
12720;DHT22;6424;48.520;11.228;2023-03-01T15:14:49;7.00;99.90
12720;DHT22;6424;48.520;11.228;2023-03-01T15:17:34;6.90;99.90
12720;DHT22;6424;48.520;11.228;2023-03-01T15:20:17;6.90;99.90
12720;DHT22;6424;48.520;11.228;2023-03-01T15:22:59;6.90;99.90
12720;DHT22;6424;48.520;11.228;2023-03-01T15:25:44;6.80;99.90
12720;DHT22;6424;48.520;11.228;2023-03-01T15:28:30;6.80;99.90
12720;DHT22;6424;48.520;11.228;2023-03-01T15:31:22;6.70;99.90
12720;DHT22;6424;48.520;11.228;2023-03-01T15:34:22;6.70;99.90
12720;DHT22;6424;48.520;11.228;2023-03-01T15:37:06;6.70;99.90
12720;DHT22;6424;48.520;11.228;2023-03-01T15:40:37;6.70;99.90
12720;DHT22;6424;48.520;11.228;2023-03-01T15:43:40;6.70;99.90
12720;DHT22;6424;48.520;11.228;2023-03-01T15:46:35;6.70;99.90
12720;DHT22;6424;48.520;11.228;2023-03-01T15:49:35;6.60;99.90
12720;DHT22;6424;48.520;11.228;2023-03-01T15:52:40;6.60;99.90
12720;DHT22;6424;48.520;11.228;2023-03-01T15:55:27;6.60;99.90
12720;DHT22;6424;48.520;11.228;2023-03-01T15:58:21;6.60;99.90
12720;DHT22;6424;48.520;11.228;2023-03-01T16:01:02;6.60;99.90
12720;DHT22;6424;48.520;11.228;2023-03-01T16:03:44;6.60;99.90
12720;DHT22;6424;48.520;11.228;2023-03-01T16:06:25;6.50;99.90
12720;DHT22;6424;48.520;11.228;2023-03-01T16:09:06;6.50;99.90
12720;DHT22;6424;48.520;11.228;2023-03-01T16:11:46;6.50;99.90
12720;DHT22;6424;48.520;11.228;2023-03-01T16:14:13;6.50;99.90
12720;DHT22;6424;48.520;11.228;2023-03-01T16:16:55;6.40;99.90
12720;DHT22;6424;48.520;11.228;2023-03-01T16:19:39;6.30;99.90
12720;DHT22;6424;48.520;11.228;2023-03-01T16:22:05;6.20;99.90
12720;DHT22;6424;48.520;11.228;2023-03-01T16:24:31;6.20;99.90
12720;DHT22;6424;48.520;11.228;2023-03-01T16:27:12;6.20;99.90
12720;DHT22;6424;48.520;11.228;2023-03-01T16:29:55;6.20;99.90
12720;DHT22;6424;48.520;11.228;2023-03-01T16:32:41;6.20;99.90
12720;DHT22;6424;48.520;11.228;2023-03-01T16:35:09;6.10;99.90
12720;DHT22;6424;48.520;11.228;2023-03-01T16:37:50;6.00;99.90
12720;DHT22;6424;48.520;11.228;2023-03-01T16:40:21;6.00;99.90
12720;DHT22;6424;48.520;11.228;2023-03-01T16:43:02;5.90;99.90
12720;DHT22;6424;48.520;11.228;2023-03-01T16:45:42;5.80;99.90
12720;DHT22;6424;48.520;11.228;2023-03-01T16:48:25;5.70;99.90
12720;DHT22;6424;48.520;11.228;2023-03-01T16:51:07;5.60;99.90
12720;DHT22;6424;48.520;11.228;2023-03-01T16:53:49;5.60;99.90
12720;DHT22;6424;48.520;11.228;2023-03-01T16:56:30;5.50;99.90
12720;DHT22;6424;48.520;11.228;2023-03-01T16:58:58;5.40;99.90
12720;DHT22;6424;48.520;11.228;2023-03-01T17:01:38;5.40;99.90
12720;DHT22;6424;48.520;11.228;2023-03-01T17:04:21;5.30;99.90
12720;DHT22;6424;48.520;11.228;2023-03-01T17:06:46;5.30;99.90
12720;DHT22;6424;48.520;11.228;2023-03-01T17:09:29;5.20;99.90
12720;DHT22;6424;48.520;11.228;2023-03-01T17:12:12;5.10;99.90
12720;DHT22;6424;48.520;11.228;2023-03-01T17:14:53;5.10;99.90
12720;DHT22;6424;48.520;11.228;2023-03-01T17:17:34;5.10;99.90
12720;DHT22;6424;48.520;11.228;2023-03-01T17:20:15;5.00;99.90
12720;DHT22;6424;48.520;11.228;2023-03-01T17:22:56;5.00;99.90
12720;DHT22;6424;48.520;11.228;2023-03-01T17:25:41;4.90;99.90
12720;DHT22;6424;48.520;11.228;2023-03-01T17:28:24;4.90;99.90
12720;DHT22;6424;48.520;11.228;2023-03-01T17:31:05;4.80;99.90
12720;DHT22;6424;48.520;11.228;2023-03-01T17:33:31;4.70;99.90
12720;DHT22;6424;48.520;11.228;2023-03-01T17:36:12;4.70;99.90
12720;DHT22;6424;48.520;11.228;2023-03-01T17:38:53;4.60;99.90
12720;DHT22;6424;48.520;11.228;2023-03-01T17:41:34;4.60;99.90
12720;DHT22;6424;48.520;11.228;2023-03-01T17:44:14;4.50;99.90
12720;DHT22;6424;48.520;11.228;2023-03-01T17:46:55;4.40;99.90
12720;DHT22;6424;48.520;11.228;2023-03-01T17:49:36;4.30;99.90
12720;DHT22;6424;48.520;11.228;2023-03-01T17:52:17;4.20;99.90
12720;DHT22;6424;48.520;11.228;2023-03-01T17:54:57;4.20;99.90
12720;DHT22;6424;48.520;11.228;2023-03-01T17:57:39;4.20;99.90
12720;DHT22;6424;48.520;11.228;2023-03-01T18:00:20;4.10;99.90
12720;DHT22;6424;48.520;11.228;2023-03-01T18:03:02;4.00;99.90
12720;DHT22;6424;48.520;11.228;2023-03-01T18:05:43;4.00;99.90
12720;DHT22;6424;48.520;11.228;2023-03-01T18:08:24;3.90;99.90
12720;DHT22;6424;48.520;11.228;2023-03-01T18:11:04;3.80;99.90
12720;DHT22;6424;48.520;11.228;2023-03-01T18:13:45;3.70;99.90
12720;DHT22;6424;48.520;11.228;2023-03-01T18:16:27;3.70;99.90
12720;DHT22;6424;48.520;11.228;2023-03-01T18:19:11;3.60;99.90
12720;DHT22;6424;48.520;11.228;2023-03-01T18:21:52;3.70;99.90
12720;DHT22;6424;48.520;11.228;2023-03-01T18:24:33;3.70;99.90
12720;DHT22;6424;48.520;11.228;2023-03-01T18:27:14;3.70;99.90
12720;DHT22;6424;48.520;11.228;2023-03-01T18:29:55;3.60;99.90
12720;DHT22;6424;48.520;11.228;2023-03-01T18:32:36;3.60;99.90
12720;DHT22;6424;48.520;11.228;2023-03-01T18:35:19;3.60;99.90
12720;DHT22;6424;48.520;11.228;2023-03-01T18:37:59;3.50;99.90
12720;DHT22;6424;48.520;11.228;2023-03-01T18:40:42;3.50;99.90
12720;DHT22;6424;48.520;11.228;2023-03-01T18:43:23;3.40;99.90
12720;DHT22;6424;48.520;11.228;2023-03-01T18:46:04;3.30;99.90
12720;DHT22;6424;48.520;11.228;2023-03-01T18:48:45;3.20;99.90
12720;DHT22;6424;48.520;11.228;2023-03-01T18:51:27;3.20;99.90
12720;DHT22;6424;48.520;11.228;2023-03-01T18:54:10;3.10;99.90
12720;DHT22;6424;48.520;11.228;2023-03-01T18:56:52;3.00;99.90
12720;DHT22;6424;48.520;11.228;2023-03-01T18:59:33;3.00;99.90
12720;DHT22;6424;48.520;11.228;2023-03-01T19:02:13;3.00;99.90
12720;DHT22;6424;48.520;11.228;2023-03-01T19:04:54;3.00;99.90
12720;DHT22;6424;48.520;11.228;2023-03-01T19:07:35;3.00;99.90